METAR Formatted Surface Weather Observation
Issued by NWS

Home | Current Version | Previous Version | Text Only | Print | Product List | Glossary On
Versions: 1 2 3 4 5 6 7 8 9
000
SAUS46 KSEW 170404
MTRSMP
METAR KSMP 170356Z AUTO 23005KT 10SM CLR 12/08 A2997 RMK AO2 SLP125
T01220078 $



USA.gov is the U.S. government's official web portal to all federal, state and local government web resources and services.